Time,TemperatureF,DewpointF,PressureIn,WindDirection,WindDirectionDegrees,WindSpeedMPH,WindSpeedGustMPH,Humidity,HourlyPrecipIn,Conditions,Clouds,dailyrainin,SoftwareType,DateUTC
2013-05-14 00:13:00,35.6,32.0,30.12,East,90,1.0,3.0,88,0.00,,,0.00,weatherlink.com 1.10,2013-05-14 04:13:00,
2013-05-14 00:28:00,35.3,32.0,30.12,East,90,0.0,2.0,89,0.00,,,0.00,weatherlink.com 1.10,2013-05-14 04:28:00,
2013-05-14 00:43:00,35.0,32.0,30.12,East,90,0.0,1.0,90,0.00,,,0.00,weatherlink.com 1.10,2013-05-14 04:43:00,
2013-05-14 00:58:00,34.7,32.0,30.12,East,90,0.0,1.0,90,0.00,,,0.00,weatherlink.com 1.10,2013-05-14 04:58:00,
2013-05-14 01:13:00,34.3,32.0,30.12,East,90,0.0,0.0,91,0.00,,,0.00,weatherlink.com 1.10,2013-05-14 05:13:00,
2013-05-14 01:28:00,34.0,32.0,30.12,East,91,0.0,1.0,91,0.00,,,0.00,weatherlink.com 1.10,2013-05-14 05:28:00,
2013-05-14 01:43:00,34.1,32.0,30.12,East,80,0.0,0.0,92,0.00,,,0.00,weatherlink.com 1.10,2013-05-14 05:43:00,
2013-05-14 01:58:00,34.1,32.0,30.11,East,80,0.0,0.0,92,0.00,,,0.00,weatherlink.com 1.10,2013-05-14 05:58:00,
2013-05-14 02:13:00,33.8,32.0,30.12,East,80,0.0,0.0,92,0.00,,,0.00,weatherlink.com 1.10,2013-05-14 06:13:00,
2013-05-14 02:28:00,33.6,32.0,30.12,East,80,0.0,0.0,92,0.00,,,0.00,weatherlink.com 1.10,2013-05-14 06:28:00,
2013-05-14 02:43:00,33.3,31.0,30.13,SSE,163,0.0,1.0,92,0.00,,,0.00,weatherlink.com 1.10,2013-05-14 06:43:00,
2013-05-14 02:58:00,33.7,32.0,30.12,SE,146,0.0,2.0,93,0.00,,,0.00,weatherlink.com 1.10,2013-05-14 06:58:00,
2013-05-14 03:13:00,34.2,32.0,30.12,SE,146,0.0,2.0,93,0.00,,,0.00,weatherlink.com 1.10,2013-05-14 07:13:00,
2013-05-14 03:28:00,33.9,32.0,30.12,SE,146,0.0,0.0,93,0.00,,,0.00,weatherlink.com 1.10,2013-05-14 07:28:00,
2013-05-14 03:43:00,33.7,32.0,30.12,SE,146,0.0,0.0,93,0.00,,,0.00,weatherlink.com 1.10,2013-05-14 07:43:00,
2013-05-14 03:58:00,33.2,31.0,30.11,SE,146,0.0,0.0,93,0.00,,,0.00,weatherlink.com 1.10,2013-05-14 07:58:00,
2013-05-14 04:13:00,32.9,31.0,30.12,SE,146,0.0,0.0,92,0.00,,,0.00,weatherlink.com 1.10,2013-05-14 08:13:00,
2013-05-14 04:28:00,33.2,31.0,30.12,SE,146,0.0,0.0,93,0.00,,,0.00,weatherlink.com 1.10,2013-05-14 08:28:00,
2013-05-14 04:43:00,32.4,31.0,30.12,SE,146,0.0,0.0,93,0.00,,,0.00,weatherlink.com 1.10,2013-05-14 08:43:00,
2013-05-14 04:58:00,32.2,30.0,30.12,SE,146,0.0,0.0,93,0.00,,,0.00,weatherlink.com 1.10,2013-05-14 08:58:00,
2013-05-14 05:13:00,31.8,30.0,30.12,SE,146,0.0,1.0,93,0.00,,,0.00,weatherlink.com 1.10,2013-05-14 09:13:00,
2013-05-14 05:28:00,31.3,30.0,30.12,SE,146,0.0,1.0,93,0.00,,,0.00,weatherlink.com 1.10,2013-05-14 09:28:00,
2013-05-14 05:43:00,31.1,29.0,30.12,SE,146,0.0,0.0,93,0.00,,,0.00,weatherlink.com 1.10,2013-05-14 09:43:00,
2013-05-14 05:58:00,30.9,29.0,30.12,SE,146,0.0,0.0,93,0.00,,,0.00,weatherlink.com 1.10,2013-05-14 09:58:00,
2013-05-14 06:14:00,30.9,29.0,30.13,SE,146,0.0,1.0,94,0.00,,,0.00,weatherlink.com 1.10,2013-05-14 10:14:00,
2013-05-14 06:29:00,30.9,29.0,30.13,SE,146,0.0,0.0,94,0.00,,,0.00,weatherlink.com 1.10,2013-05-14 10:29:00,
2013-05-14 06:44:00,31.2,30.0,30.13,SE,146,0.0,0.0,94,0.00,,,0.00,weatherlink.com 1.10,2013-05-14 10:44:00,
2013-05-14 06:59:00,32.2,31.0,30.14,SE,146,0.0,0.0,95,0.00,,,0.00,weatherlink.com 1.10,2013-05-14 10:59:00,
2013-05-14 07:14:00,33.3,32.0,30.14,SE,146,0.0,1.0,95,0.00,,,0.00,weatherlink.com 1.10,2013-05-14 11:14:00,
2013-05-14 07:29:00,34.6,33.0,30.14,WNW,299,1.0,1.0,95,0.00,,,0.00,weatherlink.com 1.10,2013-05-14 11:29:00,
2013-05-14 07:44:00,35.7,34.0,30.14,West,266,0.0,3.0,95,0.00,,,0.00,weatherlink.com 1.10,2013-05-14 11:44:00,
2013-05-14 07:59:00,37.1,36.0,30.14,West,266,0.0,2.0,96,0.00,,,0.00,weatherlink.com 1.10,2013-05-14 11:59:00,
2013-05-14 08:14:00,38.7,37.0,30.14,NNW,335,0.0,1.0,95,0.00,,,0.00,weatherlink.com 1.10,2013-05-14 12:14:00,
2013-05-14 08:29:00,40.4,38.0,30.14,WSW,237,4.0,5.0,90,0.00,,,0.00,weatherlink.com 1.10,2013-05-14 12:29:00,
2013-05-14 08:44:00,42.3,37.0,30.14,WSW,250,1.0,4.0,82,0.00,,,0.00,weatherlink.com 1.10,2013-05-14 12:44:00,
2013-05-14 08:59:00,44.4,34.0,30.14,NW,309,3.0,11.0,67,0.00,,,0.00,weatherlink.com 1.10,2013-05-14 12:59:00,
2013-05-14 09:14:00,46.2,31.0,30.13,WNW,296,3.0,10.0,56,0.00,,,0.00,weatherlink.com 1.10,2013-05-14 13:14:00,
2013-05-14 09:29:00,47.4,31.0,30.13,SSW,213,2.0,9.0,53,0.00,,,0.00,weatherlink.com 1.10,2013-05-14 13:29:00,
2013-05-14 09:44:00,48.6,31.0,30.13,NNE,25,3.0,8.0,50,0.00,,,0.00,weatherlink.com 1.10,2013-05-14 13:44:00,
2013-05-14 09:59:00,49.5,29.0,30.12,NNW,327,0.0,9.0,46,0.00,,,0.00,weatherlink.com 1.10,2013-05-14 13:59:00,
2013-05-14 10:14:00,50.0,29.0,30.12,West,260,1.0,10.0,45,0.00,,,0.00,weatherlink.com 1.10,2013-05-14 14:14:00,
2013-05-14 10:29:00,51.0,28.0,30.12,NE,46,0.0,7.0,41,0.00,,,0.00,weatherlink.com 1.10,2013-05-14 14:29:00,
2013-05-14 10:45:00,52.4,26.0,30.11,West,267,4.0,11.0,36,0.00,,,0.00,weatherlink.com 1.10,2013-05-14 14:45:00,
2013-05-14 11:00:00,52.6,26.0,30.11,SW,234,2.0,8.0,36,0.00,,,0.00,weatherlink.com 1.10,2013-05-14 15:00:00,
2013-05-14 11:15:00,53.1,27.0,30.11,NW,316,3.0,11.0,37,0.00,,,0.00,weatherlink.com 1.10,2013-05-14 15:15:00,
2013-05-14 11:30:00,53.2,26.0,30.10,WNW,287,6.0,10.0,35,0.00,,,0.00,weatherlink.com 1.10,2013-05-14 15:30:00,
2013-05-14 11:45:00,54.1,26.0,30.10,North,11,1.0,6.0,34,0.00,,,0.00,weatherlink.com 1.10,2013-05-14 15:45:00,
2013-05-14 12:00:00,54.8,25.0,30.09,WNW,302,6.0,15.0,32,0.00,,,0.00,weatherlink.com 1.10,2013-05-14 16:00:00,
2013-05-14 12:15:00,55.9,22.0,30.09,WSW,244,4.0,10.0,27,0.00,,,0.00,weatherlink.com 1.10,2013-05-14 16:15:00,
2013-05-14 12:30:00,55.9,25.0,30.09,WSW,251,3.0,11.0,30,0.00,,,0.00,weatherlink.com 1.10,2013-05-14 16:30:00,
2013-05-14 12:45:00,56.1,23.0,30.09,SW,229,3.0,14.0,28,0.00,,,0.00,weatherlink.com 1.10,2013-05-14 16:45:00,
2013-05-14 13:00:00,56.8,23.0,30.09,WSW,248,6.0,9.0,27,0.00,,,0.00,weatherlink.com 1.10,2013-05-14 17:00:00,
2013-05-14 13:15:00,56.3,23.0,30.09,WSW,240,5.0,13.0,27,0.00,,,0.00,weatherlink.com 1.10,2013-05-14 17:15:00,
2013-05-14 13:30:00,57.4,22.0,30.08,West,279,5.0,10.0,25,0.00,,,0.00,weatherlink.com 1.10,2013-05-14 17:30:00,
2013-05-14 13:45:00,57.4,21.0,30.08,NW,315,4.0,10.0,24,0.00,,,0.00,weatherlink.com 1.10,2013-05-14 17:45:00,
2013-05-14 14:00:00,57.4,21.0,30.07,WSW,253,3.0,9.0,24,0.00,,,0.00,weatherlink.com 1.10,2013-05-14 18:00:00,
2013-05-14 14:15:00,57.7,22.0,30.07,SW,236,1.0,12.0,25,0.00,,,0.00,weatherlink.com 1.10,2013-05-14 18:15:00,
2013-05-14 14:30:00,59.0,21.0,30.07,NNW,346,4.0,7.0,23,0.00,,,0.00,weatherlink.com 1.10,2013-05-14 18:30:00,
2013-05-14 14:45:00,59.1,24.0,30.07,West,267,1.0,9.0,26,0.00,,,0.00,weatherlink.com 1.10,2013-05-14 18:45:00,
2013-05-14 15:00:00,59.1,25.0,30.06,NNW,334,0.0,8.0,27,0.00,,,0.00,weatherlink.com 1.10,2013-05-14 19:00:00,
2013-05-14 15:15:00,59.3,22.0,30.05,West,270,5.0,12.0,24,0.00,,,0.00,weatherlink.com 1.10,2013-05-14 19:15:00,
2013-05-14 15:30:00,59.1,23.0,30.05,WSW,247,4.0,11.0,25,0.00,,,0.00,weatherlink.com 1.10,2013-05-14 19:30:00,
2013-05-14 15:45:00,59.0,20.0,30.05,WSW,258,3.0,10.0,22,0.00,,,0.00,weatherlink.com 1.10,2013-05-14 19:45:00,
2013-05-14 16:00:00,59.2,24.0,30.04,NW,318,7.0,7.0,26,0.00,,,0.00,weatherlink.com 1.10,2013-05-14 20:00:00,
2013-05-14 16:15:00,59.3,22.0,30.03,ENE,76,1.0,8.0,24,0.00,,,0.00,weatherlink.com 1.10,2013-05-14 20:15:00,
2013-05-14 16:30:00,59.1,22.0,30.03,WSW,238,4.0,12.0,24,0.00,,,0.00,weatherlink.com 1.10,2013-05-14 20:30:00,
2013-05-14 16:45:00,60.0,23.0,30.03,NNW,341,9.0,11.0,24,0.00,,,0.00,weatherlink.com 1.10,2013-05-14 20:45:00,
2013-05-14 17:00:00,60.2,24.0,30.02,WSW,245,2.0,5.0,25,0.00,,,0.00,weatherlink.com 1.10,2013-05-14 21:00:00,
2013-05-14 17:15:00,60.7,25.0,30.02,West,263,3.0,8.0,25,0.00,,,0.00,weatherlink.com 1.10,2013-05-14 21:15:00,
2013-05-14 17:30:00,60.5,26.0,30.02,WSW,254,3.0,7.0,27,0.00,,,0.00,weatherlink.com 1.10,2013-05-14 21:30:00,
2013-05-14 17:45:00,60.7,25.0,30.02,SW,224,3.0,6.0,25,0.00,,,0.00,weatherlink.com 1.10,2013-05-14 21:45:00,
2013-05-14 18:00:00,60.9,24.0,30.01,West,276,1.0,5.0,24,0.00,,,0.00,weatherlink.com 1.10,2013-05-14 22:00:00,
2013-05-14 18:15:00,60.5,23.0,30.01,SSW,205,2.0,7.0,24,0.00,,,0.00,weatherlink.com 1.10,2013-05-14 22:15:00,
2013-05-14 18:30:00,60.2,25.0,30.01,WSW,250,2.0,7.0,26,0.00,,,0.00,weatherlink.com 1.10,2013-05-14 22:30:00,
2013-05-14 18:46:00,59.8,25.0,30.02,SSW,208,2.0,7.0,26,0.00,,,0.00,weatherlink.com 1.10,2013-05-14 22:46:00,
2013-05-14 19:01:00,59.3,24.0,30.01,WSW,246,0.0,3.0,26,0.00,,,0.00,weatherlink.com 1.10,2013-05-14 23:01:00,
2013-05-14 19:16:00,59.3,26.0,30.00,West,270,0.0,4.0,28,0.00,,,0.00,weatherlink.com 1.10,2013-05-14 23:16:00,
2013-05-14 19:31:00,59.0,25.0,30.00,WSW,242,1.0,7.0,27,0.00,,,0.00,weatherlink.com 1.10,2013-05-14 23:31:00,
2013-05-14 19:46:00,58.0,27.0,30.00,SW,231,0.0,4.0,30,0.00,,,0.00,weatherlink.com 1.10,2013-05-14 23:46:00,
2013-05-14 20:01:00,57.0,29.0,30.00,SSW,200,0.0,5.0,34,0.00,,,0.00,weatherlink.com 1.10,2013-05-15 00:01:00,
2013-05-14 20:16:00,54.9,30.0,30.00,East,79,0.0,2.0,38,0.00,,,0.00,weatherlink.com 1.10,2013-05-15 00:16:00,
2013-05-14 20:31:00,52.6,30.0,30.00,SSW,198,0.0,1.0,42,0.00,,,0.00,weatherlink.com 1.10,2013-05-15 00:31:00,
2013-05-14 20:46:00,49.7,31.0,30.01,SE,135,1.0,1.0,49,0.00,,,0.00,weatherlink.com 1.10,2013-05-15 00:46:00,
2013-05-14 21:01:00,47.9,31.0,30.02,SE,131,1.0,2.0,53,0.00,,,0.00,weatherlink.com 1.10,2013-05-15 01:01:00,
2013-05-14 21:16:00,46.8,30.0,30.02,SE,131,1.0,1.0,53,0.00,,,0.00,weatherlink.com 1.10,2013-05-15 01:16:00,
2013-05-14 21:31:00,45.7,30.0,30.03,East,97,2.0,2.0,54,0.00,,,0.00,weatherlink.com 1.10,2013-05-15 01:31:00,
2013-05-14 21:46:00,45.0,31.0,30.03,East,97,0.0,2.0,58,0.00,,,0.00,weatherlink.com 1.10,2013-05-15 01:46:00,
2013-05-14 22:01:00,44.2,31.0,30.04,East,98,2.0,2.0,61,0.00,,,0.00,weatherlink.com 1.10,2013-05-15 02:01:00,
2013-05-14 22:16:00,44.1,32.0,30.05,East,82,1.0,3.0,62,0.00,,,0.00,weatherlink.com 1.10,2013-05-15 02:16:00,
2013-05-14 22:31:00,43.6,31.0,30.05,ENE,68,1.0,3.0,62,0.00,,,0.00,weatherlink.com 1.10,2013-05-15 02:31:00,
2013-05-14 22:46:00,43.1,32.0,30.04,East,80,2.0,2.0,66,0.00,,,0.00,weatherlink.com 1.10,2013-05-15 02:46:00,
2013-05-14 23:01:00,42.6,31.0,30.04,ENE,64,2.0,4.0,65,0.00,,,0.00,weatherlink.com 1.10,2013-05-15 03:01:00,
2013-05-14 23:16:00,42.3,33.0,30.04,East,92,1.0,3.0,70,0.00,,,0.00,weatherlink.com 1.10,2013-05-15 03:16:00,
2013-05-14 23:31:00,41.4,34.0,30.04,East,92,0.0,3.0,74,0.00,,,0.00,weatherlink.com 1.10,2013-05-15 03:31:00,
2013-05-14 23:46:00,40.8,33.0,30.04,East,101,2.0,3.0,74,0.00,,,0.00,weatherlink.com 1.10,2013-05-15 03:46:00,